createdAt,value
2018-08-29T00:00:19.650Z,86.20
2018-08-29T00:02:47.871Z,86.10
2018-08-29T00:05:16.068Z,86.40
2018-08-29T00:07:49.598Z,86.20
2018-08-29T00:10:19.248Z,86.30
2018-08-29T00:12:48.523Z,86.40
2018-08-29T00:15:16.700Z,86.60
2018-08-29T00:17:44.898Z,86.70
2018-08-29T00:20:13.108Z,87.00
2018-08-29T00:22:41.322Z,87.20
2018-08-29T00:25:09.509Z,87.10
2018-08-29T00:27:37.730Z,87.20
2018-08-29T00:30:05.959Z,87.40
2018-08-29T00:32:34.135Z,87.60
2018-08-29T00:35:02.348Z,87.50
2018-08-29T00:37:30.547Z,87.50
2018-08-29T00:39:58.788Z,87.90
2018-08-29T00:42:27.052Z,88.30
2018-08-29T00:44:55.233Z,88.40
2018-08-29T00:47:23.435Z,88.40
2018-08-29T00:49:51.642Z,88.80
2018-08-29T00:52:19.903Z,89.00
2018-08-29T00:54:48.109Z,89.20
2018-08-29T00:57:16.301Z,89.50
2018-08-29T00:59:44.578Z,89.50
2018-08-29T01:02:13.773Z,89.80
2018-08-29T01:04:42.036Z,90.00
2018-08-29T01:07:10.601Z,90.00
2018-08-29T01:09:38.843Z,90.10
2018-08-29T01:12:07.059Z,90.30
2018-08-29T01:14:35.251Z,90.50
2018-08-29T01:17:03.459Z,90.70
2018-08-29T01:19:31.695Z,90.70
2018-08-29T01:21:59.955Z,90.80
2018-08-29T01:24:28.155Z,90.80
2018-08-29T01:26:56.391Z,91.10
2018-08-29T01:29:24.655Z,91.20
2018-08-29T01:31:52.853Z,91.30
2018-08-29T01:34:21.131Z,91.30
2018-08-29T01:36:49.279Z,91.40
2018-08-29T01:39:17.547Z,91.50
2018-08-29T01:41:45.789Z,91.70
2018-08-29T01:44:14.190Z,91.70
2018-08-29T01:46:42.348Z,91.80
2018-08-29T01:49:10.575Z,92.00
2018-08-29T01:51:38.777Z,92.10
2018-08-29T01:54:06.973Z,92.20
2018-08-29T01:56:35.195Z,92.30
2018-08-29T01:59:03.439Z,92.40
2018-08-29T02:01:31.647Z,92.50
2018-08-29T02:03:59.821Z,92.60
2018-08-29T02:06:28.028Z,93.00
2018-08-29T02:08:56.267Z,92.70
2018-08-29T02:11:24.441Z,92.80
2018-08-29T02:13:52.635Z,92.80
2018-08-29T02:16:20.819Z,93.00
2018-08-29T02:18:49.043Z,92.90
2018-08-29T02:21:17.217Z,92.90
2018-08-29T02:23:45.413Z,92.90
2018-08-29T02:26:13.595Z,93.10
2018-08-29T02:28:41.871Z,93.30
2018-08-29T02:31:10.055Z,93.30
2018-08-29T02:33:38.295Z,93.70
2018-08-29T02:36:06.585Z,93.40
2018-08-29T02:38:34.847Z,93.50
2018-08-29T02:41:03.582Z,93.50
2018-08-29T02:43:31.761Z,93.50
2018-08-29T02:45:59.947Z,93.60
2018-08-29T02:48:28.129Z,93.70
2018-08-29T02:50:56.789Z,93.70
2018-08-29T02:53:25.463Z,93.80
2018-08-29T02:55:53.735Z,93.80
2018-08-29T02:58:21.979Z,93.90
2018-08-29T03:00:50.244Z,94.20
2018-08-29T03:03:18.455Z,93.80
2018-08-29T03:05:46.642Z,93.80
2018-08-29T03:08:14.899Z,94.20
2018-08-29T03:10:43.080Z,94.00
2018-08-29T03:13:11.310Z,94.10
2018-08-29T03:15:39.506Z,94.10
2018-08-29T03:18:07.710Z,94.20
2018-08-29T03:24:06.888Z,94.30
2018-08-29T03:26:35.098Z,94.40
2018-08-29T03:29:03.374Z,94.50
2018-08-29T03:31:31.564Z,94.60
2018-08-29T03:34:00.046Z,94.80
2018-08-29T03:36:28.276Z,94.90
2018-08-29T03:38:56.465Z,94.80
2018-08-29T03:41:24.693Z,94.80
2018-08-29T03:43:52.917Z,95.00
2018-08-29T03:46:21.310Z,94.70
2018-08-29T03:48:49.600Z,94.70
2018-08-29T03:51:17.962Z,94.70
2018-08-29T03:53:46.142Z,94.80
2018-08-29T03:56:14.338Z,94.90
2018-08-29T03:58:42.584Z,95.00
2018-08-29T04:01:10.933Z,95.10
2018-08-29T04:03:39.168Z,95.20
2018-08-29T04:06:07.362Z,95.30
2018-08-29T04:08:35.572Z,95.30
2018-08-29T04:11:03.798Z,95.20
2018-08-29T04:13:31.994Z,95.30
2018-08-29T04:16:00.211Z,95.40
2018-08-29T04:18:28.468Z,95.50
2018-08-29T04:20:56.662Z,95.60
2018-08-29T04:23:24.854Z,95.70
2018-08-29T04:25:53.065Z,95.70
2018-08-29T04:28:21.324Z,95.80
2018-08-29T04:30:49.532Z,95.80
2018-08-29T04:33:17.718Z,95.90
2018-08-29T04:35:45.930Z,96.10
2018-08-29T04:38:14.172Z,96.40
2018-08-29T04:40:42.397Z,96.10
2018-08-29T04:43:10.596Z,96.10
2018-08-29T04:45:38.786Z,96.10
2018-08-29T04:48:07.070Z,96.50
2018-08-29T04:50:35.281Z,96.10
2018-08-29T04:53:03.490Z,96.10
2018-08-29T04:55:31.710Z,96.10
2018-08-29T04:58:00.019Z,96.10
2018-08-29T05:00:28.201Z,96.20
2018-08-29T05:02:56.378Z,96.30
2018-08-29T05:05:24.584Z,96.30
2018-08-29T05:07:52.827Z,96.40
2018-08-29T05:10:21.043Z,96.40
2018-08-29T05:12:49.257Z,96.50
2018-08-29T05:15:17.463Z,96.60
2018-08-29T05:17:45.658Z,96.60
2018-08-29T05:20:13.914Z,96.60
2018-08-29T05:22:42.126Z,96.70
2018-08-29T05:25:10.420Z,96.80
2018-08-29T05:27:38.614Z,96.70
2018-08-29T05:30:06.821Z,96.70
2018-08-29T05:32:35.023Z,96.70
2018-08-29T05:35:03.249Z,96.80
2018-08-29T05:37:31.443Z,96.80
2018-08-29T05:39:59.651Z,96.80
2018-08-29T05:42:27.857Z,96.70
2018-08-29T05:44:56.066Z,97.10
2018-08-29T05:47:24.320Z,96.70
2018-08-29T05:49:52.584Z,96.70
2018-08-29T05:52:20.764Z,96.60
2018-08-29T05:54:48.946Z,96.50
2018-08-29T05:57:17.171Z,96.40
2018-08-29T05:59:45.362Z,96.30
2018-08-29T06:02:13.580Z,96.10
2018-08-29T06:04:41.778Z,96.00
2018-08-29T06:07:09.982Z,95.90
2018-08-29T06:09:38.190Z,95.90
2018-08-29T06:12:06.674Z,95.90
2018-08-29T06:14:34.887Z,95.80
2018-08-29T06:17:03.104Z,95.70
2018-08-29T06:19:31.284Z,95.60
2018-08-29T06:21:59.508Z,95.50
2018-08-29T06:24:27.699Z,95.40
2018-08-29T06:26:56.016Z,95.30
2018-08-29T06:29:24.119Z,95.20
2018-08-29T06:31:52.287Z,95.00
2018-08-29T06:34:20.488Z,94.90
2018-08-29T06:36:48.707Z,94.80
2018-08-29T06:39:16.930Z,94.60
2018-08-29T06:41:45.081Z,94.50
2018-08-29T06:44:13.262Z,94.40
2018-08-29T06:46:41.453Z,94.20
2018-08-29T06:49:09.663Z,94.20
2018-08-29T06:51:38.601Z,94.10
2018-08-29T06:54:07.678Z,93.90
2018-08-29T06:56:35.888Z,93.80
2018-08-29T06:59:05.985Z,93.60
2018-08-29T07:01:34.178Z,93.60
2018-08-29T07:04:02.404Z,93.50
2018-08-29T07:06:30.624Z,93.40
2018-08-29T07:08:58.839Z,93.10
2018-08-29T07:11:27.055Z,92.60
2018-08-29T07:13:55.263Z,92.10
2018-08-29T07:16:23.465Z,91.60
2018-08-29T07:18:51.624Z,91.10
2018-08-29T07:21:19.798Z,90.80
2018-08-29T07:23:48.002Z,90.40
2018-08-29T07:26:16.415Z,89.80
2018-08-29T07:28:44.673Z,88.60
2018-08-29T07:31:12.861Z,88.40
2018-08-29T07:33:41.081Z,87.00
2018-08-29T07:36:09.429Z,86.90
2018-08-29T07:38:37.583Z,85.60
2018-08-29T07:41:05.802Z,85.20
2018-08-29T07:43:34.070Z,84.90
2018-08-29T07:46:02.281Z,84.70
2018-08-29T07:48:30.505Z,84.10
2018-08-29T07:50:58.703Z,83.40
2018-08-29T07:53:26.898Z,82.70
2018-08-29T07:55:55.103Z,81.70
2018-08-29T07:58:23.366Z,80.70
2018-08-29T08:00:51.644Z,80.10
2018-08-29T08:03:19.853Z,79.50
2018-08-29T08:05:48.042Z,79.50
2018-08-29T08:08:16.754Z,78.70
2018-08-29T08:10:44.741Z,78.00
2018-08-29T08:13:12.931Z,77.10
2018-08-29T08:15:41.147Z,76.10
2018-08-29T08:18:09.421Z,75.60
2018-08-29T08:20:37.598Z,75.10
2018-08-29T08:23:05.815Z,74.30
2018-08-29T08:25:34.025Z,72.90
2018-08-29T08:28:02.271Z,71.00
2018-08-29T08:30:30.469Z,68.80
2018-08-29T08:32:58.683Z,65.40
2018-08-29T08:35:26.899Z,62.70
2018-08-29T08:37:55.222Z,59.90
2018-08-29T08:40:23.487Z,58.40
2018-08-29T08:42:51.665Z,56.20
2018-08-29T08:45:19.866Z,53.70
2018-08-29T08:47:48.144Z,51.60
2018-08-29T08:50:16.293Z,50.00
2018-08-29T08:52:44.500Z,49.30
2018-08-29T08:55:12.697Z,48.60
2018-08-29T08:57:40.937Z,47.80
2018-08-29T09:00:09.175Z,46.80
2018-08-29T09:02:37.359Z,46.60
2018-08-29T09:05:05.567Z,45.50
2018-08-29T09:07:33.858Z,45.40
2018-08-29T09:10:01.986Z,45.30
2018-08-29T09:12:30.198Z,44.90
2018-08-29T09:14:58.401Z,44.50
2018-08-29T09:17:26.623Z,44.40
2018-08-29T09:19:54.807Z,44.10
2018-08-29T09:22:23.011Z,44.30
2018-08-29T09:24:51.319Z,43.30
2018-08-29T09:27:19.819Z,42.20
2018-08-29T09:29:48.067Z,41.10
2018-08-29T09:32:16.292Z,40.50
2018-08-29T09:34:44.685Z,40.80
2018-08-29T09:37:12.851Z,41.30
2018-08-29T09:39:41.079Z,40.60
2018-08-29T09:42:09.273Z,40.30
2018-08-29T09:44:37.453Z,40.20
2018-08-29T09:47:05.690Z,40.70
2018-08-29T09:49:33.925Z,41.10
2018-08-29T09:52:06.663Z,40.50
2018-08-29T09:54:34.865Z,40.50
2018-08-29T09:57:03.154Z,39.70
2018-08-29T09:59:31.243Z,38.80
2018-08-29T10:01:59.473Z,38.70
2018-08-29T10:04:28.914Z,38.30
2018-08-29T10:06:57.157Z,37.30
2018-08-29T10:09:25.367Z,37.70
2018-08-29T10:11:53.591Z,37.90
2018-08-29T10:14:21.763Z,38.50
2018-08-29T10:16:49.979Z,38.80
2018-08-29T10:19:18.191Z,38.60
2018-08-29T10:21:46.400Z,38.50
2018-08-29T10:24:14.606Z,38.10
2018-08-29T10:26:42.814Z,37.40
2018-08-29T10:29:11.001Z,37.10
2018-08-29T10:31:39.218Z,36.60
2018-08-29T10:34:07.384Z,36.20
2018-08-29T10:36:35.580Z,35.60
2018-08-29T10:39:04.149Z,35.10
2018-08-29T10:41:32.328Z,34.60
2018-08-29T10:44:00.551Z,34.60
2018-08-29T10:46:28.744Z,33.70
2018-08-29T10:48:57.006Z,33.00
2018-08-29T10:51:25.254Z,32.90
2018-08-29T10:53:53.424Z,32.40
2018-08-29T10:56:21.636Z,32.40
2018-08-29T10:58:49.822Z,32.00
2018-08-29T11:01:20.733Z,31.80
2018-08-29T11:03:48.903Z,31.80
2018-08-29T11:06:17.222Z,32.00
2018-08-29T11:08:45.453Z,32.00
2018-08-29T11:11:13.630Z,32.10
2018-08-29T11:13:41.826Z,32.00
2018-08-29T11:16:10.076Z,32.10
2018-08-29T11:18:38.247Z,31.70
2018-08-29T11:21:06.702Z,31.40
2018-08-29T11:23:34.900Z,31.30
2018-08-29T11:26:03.118Z,31.00
2018-08-29T11:28:31.482Z,30.80
2018-08-29T11:30:59.532Z,30.80
2018-08-29T11:33:27.737Z,30.50
2018-08-29T11:35:55.920Z,30.40
2018-08-29T11:38:24.150Z,30.30
2018-08-29T11:40:52.329Z,29.70
2018-08-29T11:43:20.533Z,30.00
2018-08-29T11:45:48.714Z,30.10
2018-08-29T11:48:17.131Z,30.00
2018-08-29T11:50:45.327Z,30.00
2018-08-29T11:53:13.536Z,29.80
2018-08-29T11:55:41.748Z,29.40
2018-08-29T11:58:09.986Z,29.40
2018-08-29T12:00:38.188Z,29.00
2018-08-29T12:03:06.812Z,28.90
2018-08-29T12:05:34.970Z,28.80
2018-08-29T12:08:03.297Z,28.80
2018-08-29T12:10:31.467Z,28.90
2018-08-29T12:12:59.643Z,29.40
2018-08-29T12:15:27.838Z,30.00
2018-08-29T12:17:56.289Z,32.00
2018-08-29T12:20:24.501Z,33.60
2018-08-29T12:22:52.715Z,34.80
2018-08-29T12:25:20.921Z,35.60
2018-08-29T12:27:49.128Z,36.40
2018-08-29T12:30:17.319Z,36.70
2018-08-29T12:32:45.533Z,36.50
2018-08-29T12:35:13.737Z,36.70
2018-08-29T12:37:41.927Z,37.00
2018-08-29T12:40:10.153Z,36.60
2018-08-29T12:42:38.372Z,36.60
2018-08-29T12:45:06.614Z,36.40
2018-08-29T12:47:34.804Z,36.70
2018-08-29T12:50:03.058Z,37.20
2018-08-29T12:52:31.203Z,37.40
2018-08-29T12:54:59.379Z,37.30
2018-08-29T12:57:27.582Z,36.30
2018-08-29T12:59:55.818Z,34.20
2018-08-29T13:02:24.003Z,33.30
2018-08-29T13:04:52.774Z,32.90
2018-08-29T13:07:21.028Z,32.50
2018-08-29T13:09:49.172Z,32.40
2018-08-29T13:12:17.367Z,32.30
2018-08-29T13:14:45.643Z,31.80
2018-08-29T13:17:13.783Z,32.50
2018-08-29T13:19:41.979Z,33.20
2018-08-29T13:22:10.171Z,33.40
2018-08-29T13:24:38.363Z,33.90
2018-08-29T13:27:06.571Z,34.70
2018-08-29T13:29:34.779Z,35.00
2018-08-29T13:32:03.007Z,36.30
2018-08-29T13:34:31.219Z,36.10
2018-08-29T13:36:59.443Z,36.70
2018-08-29T13:39:27.653Z,36.80
2018-08-29T13:41:55.849Z,36.80
2018-08-29T13:44:24.063Z,37.70
2018-08-29T13:46:52.359Z,38.20
2018-08-29T13:49:20.570Z,38.90
2018-08-29T13:51:48.837Z,38.90
2018-08-29T13:54:17.048Z,38.60
2018-08-29T13:56:45.231Z,39.60
2018-08-29T13:59:13.441Z,39.60
2018-08-29T14:01:41.610Z,39.90
2018-08-29T14:04:09.807Z,40.00
2018-08-29T14:06:38.017Z,40.50
2018-08-29T14:09:06.756Z,40.90
2018-08-29T14:11:34.957Z,41.50
2018-08-29T14:14:03.166Z,42.30
2018-08-29T14:16:31.369Z,43.30
2018-08-29T14:18:59.817Z,44.70
2018-08-29T14:21:28.063Z,46.40
2018-08-29T14:23:56.283Z,48.10
2018-08-29T14:26:24.548Z,49.10
2018-08-29T14:28:52.867Z,50.00
2018-08-29T14:31:21.064Z,50.90
2018-08-29T14:33:49.482Z,52.50
2018-08-29T14:36:17.573Z,55.50
2018-08-29T14:38:45.796Z,62.70
2018-08-29T14:41:13.993Z,77.60
2018-08-29T14:43:42.218Z,90.40
2018-08-29T14:46:10.524Z,93.30
2018-08-29T14:48:38.919Z,95.30
2018-08-29T14:51:07.148Z,95.90
2018-08-29T14:53:35.334Z,96.80
2018-08-29T14:56:03.698Z,97.10
2018-08-29T14:58:31.804Z,97.70
2018-08-29T15:01:12.385Z,98.00
2018-08-29T15:03:52.118Z,98.50
2018-08-29T15:06:20.311Z,99.10
2018-08-29T15:08:48.494Z,99.60
2018-08-29T15:11:16.697Z,99.70
2018-08-29T15:13:44.947Z,99.70
2018-08-29T15:16:13.162Z,99.50
2018-08-29T15:18:41.402Z,98.80
2018-08-29T15:21:09.606Z,98.70
2018-08-29T15:23:37.841Z,98.90
2018-08-29T15:26:06.359Z,98.90
2018-08-29T15:28:34.609Z,98.30
2018-08-29T15:31:02.740Z,97.90
2018-08-29T15:33:30.949Z,98.20
2018-08-29T15:35:59.169Z,98.80
2018-08-29T15:38:27.708Z,99.00
2018-08-29T15:40:55.930Z,99.50
2018-08-29T15:43:24.096Z,99.90
2018-08-29T15:45:52.327Z,99.90
2018-08-29T15:48:20.578Z,99.90
2018-08-29T15:50:48.819Z,99.90
2018-08-29T15:53:17.016Z,99.90
2018-08-29T15:55:45.193Z,99.90
2018-08-29T15:58:13.466Z,99.90
2018-08-29T16:00:41.774Z,99.90
2018-08-29T16:03:09.999Z,99.90
2018-08-29T16:05:38.221Z,99.90
2018-08-29T16:08:06.857Z,99.90
2018-08-29T16:10:35.074Z,99.90
2018-08-29T16:13:03.437Z,99.90
2018-08-29T16:15:31.752Z,99.90
2018-08-29T16:18:00.058Z,99.90
2018-08-29T16:20:28.281Z,99.90
2018-08-29T16:22:56.493Z,99.90
2018-08-29T16:25:24.740Z,99.90
2018-08-29T16:27:53.250Z,99.90
2018-08-29T16:30:21.453Z,99.90
2018-08-29T16:32:49.697Z,99.90
2018-08-29T16:35:18.198Z,99.90
2018-08-29T16:37:53.931Z,99.90
2018-08-29T16:40:22.354Z,99.90
2018-08-29T16:42:50.538Z,99.90
2018-08-29T16:45:18.770Z,99.90
2018-08-29T16:47:47.025Z,99.90
2018-08-29T16:50:15.222Z,99.90
2018-08-29T16:52:43.465Z,99.90
2018-08-29T16:55:11.653Z,99.90
2018-08-29T16:57:39.865Z,99.90
2018-08-29T17:00:08.673Z,99.90
2018-08-29T17:02:37.066Z,99.90
2018-08-29T17:05:05.288Z,99.90
2018-08-29T17:07:33.492Z,99.90
2018-08-29T17:10:01.705Z,99.90
2018-08-29T17:12:29.884Z,99.90
2018-08-29T17:14:58.190Z,99.90
2018-08-29T17:17:26.293Z,99.90
2018-08-29T17:19:54.678Z,99.90
2018-08-29T17:22:22.870Z,99.90
2018-08-29T17:24:51.048Z,99.90
2018-08-29T17:27:19.260Z,99.90
2018-08-29T17:29:47.490Z,99.90
2018-08-29T17:32:16.162Z,99.90
2018-08-29T17:34:44.370Z,99.90
2018-08-29T17:37:12.572Z,99.90
2018-08-29T17:39:40.784Z,99.90
2018-08-29T17:42:08.978Z,99.90
2018-08-29T17:44:38.227Z,99.90
2018-08-29T17:47:07.468Z,99.90
2018-08-29T17:49:50.254Z,99.90
2018-08-29T17:52:18.434Z,99.90
2018-08-29T17:54:46.642Z,99.90
2018-08-29T17:57:14.841Z,99.90
2018-08-29T17:59:43.064Z,99.90
2018-08-29T18:02:11.268Z,99.90
2018-08-29T18:04:39.458Z,99.90
2018-08-29T18:07:07.648Z,99.90
2018-08-29T18:09:35.851Z,99.90
2018-08-29T18:12:04.072Z,99.90
2018-08-29T18:14:32.275Z,99.90
2018-08-29T18:17:00.508Z,99.90
2018-08-29T18:19:28.708Z,99.90
2018-08-29T18:21:56.924Z,99.90
2018-08-29T18:24:25.123Z,99.90
2018-08-29T18:26:53.320Z,99.90
2018-08-29T18:29:21.516Z,99.90
2018-08-29T18:31:50.006Z,99.90
2018-08-29T18:34:18.258Z,99.90
2018-08-29T18:36:46.436Z,99.90
2018-08-29T18:39:14.673Z,99.90
2018-08-29T18:41:42.836Z,99.90
2018-08-29T18:44:11.226Z,99.90
2018-08-29T18:46:39.451Z,99.90
2018-08-29T18:49:07.696Z,99.90
2018-08-29T18:51:36.628Z,99.90
2018-08-29T18:54:04.880Z,99.90
2018-08-29T18:56:33.168Z,99.90
2018-08-29T18:59:01.471Z,99.90
2018-08-29T19:01:29.564Z,99.90
2018-08-29T19:03:57.888Z,99.90
2018-08-29T19:06:26.075Z,99.90
2018-08-29T19:08:54.406Z,99.90
2018-08-29T19:11:22.609Z,99.90
2018-08-29T19:13:50.804Z,99.90
2018-08-29T19:16:19.076Z,99.90
2018-08-29T19:18:47.347Z,99.90
2018-08-29T19:21:15.542Z,99.90
2018-08-29T19:23:43.771Z,99.90
2018-08-29T19:26:12.004Z,99.90
2018-08-29T19:28:40.190Z,99.90
2018-08-29T19:31:08.377Z,99.90
2018-08-29T19:33:36.594Z,99.90
2018-08-29T19:36:04.915Z,99.90
2018-08-29T19:38:33.194Z,99.90
2018-08-29T19:41:01.389Z,99.90
2018-08-29T19:43:29.594Z,99.90
2018-08-29T19:45:58.018Z,99.90
2018-08-29T19:48:26.273Z,99.90
2018-08-29T19:50:54.541Z,99.90
2018-08-29T19:53:22.737Z,99.90
2018-08-29T19:55:50.943Z,99.90
2018-08-29T19:58:19.155Z,99.90
2018-08-29T20:00:47.342Z,99.90
2018-08-29T20:03:15.530Z,99.90
2018-08-29T20:05:43.789Z,99.90
2018-08-29T20:08:11.989Z,99.90
2018-08-29T20:10:40.447Z,99.90
2018-08-29T20:13:08.629Z,99.90
2018-08-29T20:15:36.862Z,99.90
2018-08-29T20:18:05.118Z,99.90
2018-08-29T20:20:33.319Z,99.90
2018-08-29T20:23:01.513Z,99.90
2018-08-29T20:25:29.719Z,99.90
2018-08-29T20:27:58.011Z,99.90
2018-08-29T20:30:26.235Z,99.90
2018-08-29T20:32:54.640Z,99.90
2018-08-29T20:35:22.643Z,99.90
2018-08-29T20:37:50.923Z,99.90
2018-08-29T20:40:19.117Z,99.90
2018-08-29T20:42:47.317Z,99.90
2018-08-29T20:45:15.539Z,99.90
2018-08-29T20:47:43.739Z,99.90
2018-08-29T20:50:11.964Z,99.90
2018-08-29T20:52:40.158Z,99.90
2018-08-29T20:55:08.362Z,99.90
2018-08-29T20:57:36.607Z,99.90
2018-08-29T21:00:05.057Z,99.90
2018-08-29T21:02:33.261Z,99.90
2018-08-29T21:05:01.461Z,99.90
2018-08-29T21:07:29.667Z,99.90
2018-08-29T21:09:57.922Z,99.90
2018-08-29T21:12:26.195Z,99.90
2018-08-29T21:14:54.367Z,99.90
2018-08-29T21:17:22.604Z,99.90
2018-08-29T21:19:50.958Z,99.90
2018-08-29T21:22:19.143Z,99.90
2018-08-29T21:24:47.339Z,99.90
2018-08-29T21:27:26.775Z,99.90
2018-08-29T21:30:06.303Z,99.90
2018-08-29T21:36:55.087Z,99.90
2018-08-29T21:39:23.375Z,99.90
2018-08-29T21:41:52.153Z,99.90
2018-08-29T21:44:34.092Z,99.90
2018-08-29T21:47:13.714Z,99.90
2018-08-29T21:51:54.413Z,99.90
2018-08-29T21:54:32.088Z,99.90
2018-08-29T21:57:11.459Z,99.90
2018-08-29T21:59:50.097Z,99.90
2018-08-29T22:04:34.859Z,99.90
2018-08-29T22:07:03.121Z,99.90
2018-08-29T22:09:31.314Z,99.90
2018-08-29T22:11:59.521Z,99.90
2018-08-29T22:14:27.800Z,99.90
2018-08-29T22:16:55.913Z,99.90
2018-08-29T22:19:24.185Z,99.90
2018-08-29T22:21:52.407Z,99.90
2018-08-29T22:24:20.624Z,99.90
2018-08-29T22:26:48.832Z,99.90
2018-08-29T22:29:17.135Z,99.90
2018-08-29T22:31:45.311Z,99.90
2018-08-29T22:34:13.504Z,99.90
2018-08-29T22:36:41.699Z,99.90
2018-08-29T22:39:09.966Z,99.90
2018-08-29T22:41:38.143Z,99.90
2018-08-29T22:44:06.517Z,99.90
2018-08-29T22:46:34.729Z,99.90
2018-08-29T22:49:02.951Z,99.90
2018-08-29T22:51:31.163Z,99.90
2018-08-29T22:53:59.379Z,99.90
2018-08-29T22:56:27.571Z,99.90
2018-08-29T22:58:55.796Z,99.90
2018-08-29T23:01:23.981Z,99.90
2018-08-29T23:03:52.206Z,99.90
2018-08-29T23:06:20.400Z,99.90
2018-08-29T23:08:48.685Z,99.90
2018-08-29T23:11:16.887Z,99.90
2018-08-29T23:13:45.081Z,99.90
2018-08-29T23:16:13.306Z,99.90
2018-08-29T23:18:41.510Z,99.90
2018-08-29T23:21:09.700Z,99.90
2018-08-29T23:23:37.889Z,99.90
2018-08-29T23:26:06.069Z,99.90
2018-08-29T23:28:34.374Z,99.90
2018-08-29T23:31:02.565Z,99.90
2018-08-29T23:33:30.743Z,99.90
2018-08-29T23:35:58.924Z,99.90
2018-08-29T23:38:27.148Z,99.90
2018-08-29T23:40:55.380Z,99.90
2018-08-29T23:43:23.556Z,99.90
2018-08-29T23:45:51.738Z,99.90
2018-08-29T23:48:19.956Z,99.90
2018-08-29T23:50:48.165Z,99.90
2018-08-29T23:53:16.382Z,99.90
2018-08-29T23:55:44.548Z,99.90
2018-08-29T23:58:12.794Z,99.90
